sensor_id;sensor_type;location;lat;lon;timestamp;P1;durP1;ratioP1;P2;durP2;ratioP2
25938;SDS011;13739;51.172;4.466;2023-02-15T00:01:04;61.75;;;28.15;;
25938;SDS011;13739;51.172;4.466;2023-02-15T00:03:34;66.03;;;28.55;;
25938;SDS011;13739;51.172;4.466;2023-02-15T00:06:00;76.82;;;29.70;;
25938;SDS011;13739;51.172;4.466;2023-02-15T00:08:26;73.30;;;29.75;;
25938;SDS011;13739;51.172;4.466;2023-02-15T00:10:52;70.82;;;28.70;;
25938;SDS011;13739;51.172;4.466;2023-02-15T00:13:18;65.43;;;27.48;;
25938;SDS011;13739;51.172;4.466;2023-02-15T00:15:44;70.85;;;29.55;;
25938;SDS011;13739;51.172;4.466;2023-02-15T00:18:09;76.38;;;28.45;;
25938;SDS011;13739;51.172;4.466;2023-02-15T00:20:35;70.53;;;28.52;;
25938;SDS011;13739;51.172;4.466;2023-02-15T00:23:00;71.20;;;29.02;;
25938;SDS011;13739;51.172;4.466;2023-02-15T00:25:26;70.95;;;29.23;;
25938;SDS011;13739;51.172;4.466;2023-02-15T00:27:52;72.07;;;28.90;;
25938;SDS011;13739;51.172;4.466;2023-02-15T00:30:17;70.30;;;29.20;;
25938;SDS011;13739;51.172;4.466;2023-02-15T00:32:43;66.97;;;27.70;;
25938;SDS011;13739;51.172;4.466;2023-02-15T00:35:09;68.75;;;28.08;;
25938;SDS011;13739;51.172;4.466;2023-02-15T00:37:35;64.25;;;27.50;;
25938;SDS011;13739;51.172;4.466;2023-02-15T00:40:01;67.68;;;27.67;;
25938;SDS011;13739;51.172;4.466;2023-02-15T00:42:32;66.75;;;27.15;;
25938;SDS011;13739;51.172;4.466;2023-02-15T00:44:58;70.72;;;27.98;;
25938;SDS011;13739;51.172;4.466;2023-02-15T00:52:50;69.95;;;27.40;;
25938;SDS011;13739;51.172;4.466;2023-02-15T00:55:16;62.25;;;27.40;;
25938;SDS011;13739;51.172;4.466;2023-02-15T00:57:42;67.63;;;26.52;;
25938;SDS011;13739;51.172;4.466;2023-02-15T01:00:07;74.30;;;27.90;;
25938;SDS011;13739;51.172;4.466;2023-02-15T01:02:33;61.60;;;26.80;;
25938;SDS011;13739;51.172;4.466;2023-02-15T01:04:59;64.47;;;26.67;;
25938;SDS011;13739;51.172;4.466;2023-02-15T01:07:25;72.38;;;29.83;;
25938;SDS011;13739;51.172;4.466;2023-02-15T01:09:50;71.88;;;27.05;;
25938;SDS011;13739;51.172;4.466;2023-02-15T01:12:16;71.15;;;27.25;;
25938;SDS011;13739;51.172;4.466;2023-02-15T01:14:42;71.45;;;27.25;;
25938;SDS011;13739;51.172;4.466;2023-02-15T01:17:07;68.03;;;27.80;;
25938;SDS011;13739;51.172;4.466;2023-02-15T01:19:33;61.25;;;26.98;;
25938;SDS011;13739;51.172;4.466;2023-02-15T01:21:59;71.35;;;29.38;;
25938;SDS011;13739;51.172;4.466;2023-02-15T01:24:24;64.38;;;27.35;;
25938;SDS011;13739;51.172;4.466;2023-02-15T01:26:50;67.15;;;28.20;;
25938;SDS011;13739;51.172;4.466;2023-02-15T01:29:16;67.30;;;28.95;;
25938;SDS011;13739;51.172;4.466;2023-02-15T01:31:41;72.47;;;28.83;;
25938;SDS011;13739;51.172;4.466;2023-02-15T01:34:07;69.57;;;28.25;;
25938;SDS011;13739;51.172;4.466;2023-02-15T01:36:33;69.78;;;29.40;;
25938;SDS011;13739;51.172;4.466;2023-02-15T01:39:00;78.25;;;29.85;;
25938;SDS011;13739;51.172;4.466;2023-02-15T01:41:25;75.93;;;31.17;;
25938;SDS011;13739;51.172;4.466;2023-02-15T01:43:57;75.00;;;30.45;;
25938;SDS011;13739;51.172;4.466;2023-02-15T01:46:34;77.45;;;31.42;;
25938;SDS011;13739;51.172;4.466;2023-02-15T01:49:05;70.30;;;29.67;;
25938;SDS011;13739;51.172;4.466;2023-02-15T01:51:37;67.50;;;27.98;;
25938;SDS011;13739;51.172;4.466;2023-02-15T01:54:12;67.63;;;29.23;;
25938;SDS011;13739;51.172;4.466;2023-02-15T01:56:41;80.20;;;31.10;;
25938;SDS011;13739;51.172;4.466;2023-02-15T01:59:12;73.50;;;28.75;;
25938;SDS011;13739;51.172;4.466;2023-02-15T02:01:41;63.10;;;28.42;;
25938;SDS011;13739;51.172;4.466;2023-02-15T02:04:17;68.55;;;28.67;;
25938;SDS011;13739;51.172;4.466;2023-02-15T02:06:58;67.00;;;29.80;;
25938;SDS011;13739;51.172;4.466;2023-02-15T02:09:27;64.50;;;27.25;;
25938;SDS011;13739;51.172;4.466;2023-02-15T02:11:52;67.15;;;28.85;;
25938;SDS011;13739;51.172;4.466;2023-02-15T02:14:19;68.85;;;29.15;;
25938;SDS011;13739;51.172;4.466;2023-02-15T02:16:55;67.07;;;27.90;;
25938;SDS011;13739;51.172;4.466;2023-02-15T02:28:04;65.13;;;26.27;;
25938;SDS011;13739;51.172;4.466;2023-02-15T02:39:27;61.28;;;27.15;;
25938;SDS011;13739;51.172;4.466;2023-02-15T02:42:15;64.93;;;27.25;;
25938;SDS011;13739;51.172;4.466;2023-02-15T02:44:59;70.80;;;28.00;;
25938;SDS011;13739;51.172;4.466;2023-02-15T02:47:30;71.82;;;26.70;;
25938;SDS011;13739;51.172;4.466;2023-02-15T02:50:03;67.22;;;27.23;;
25938;SDS011;13739;51.172;4.466;2023-02-15T02:54:57;67.97;;;28.98;;
25938;SDS011;13739;51.172;4.466;2023-02-15T02:57:24;68.90;;;27.10;;
25938;SDS011;13739;51.172;4.466;2023-02-15T02:59:52;68.15;;;28.02;;
25938;SDS011;13739;51.172;4.466;2023-02-15T03:02:21;73.07;;;27.92;;
25938;SDS011;13739;51.172;4.466;2023-02-15T03:04:52;65.13;;;28.15;;
25938;SDS011;13739;51.172;4.466;2023-02-15T03:07:23;67.75;;;27.45;;
25938;SDS011;13739;51.172;4.466;2023-02-15T03:09:53;63.53;;;27.17;;
25938;SDS011;13739;51.172;4.466;2023-02-15T03:12:24;66.90;;;28.23;;
25938;SDS011;13739;51.172;4.466;2023-02-15T03:14:59;68.22;;;27.30;;
25938;SDS011;13739;51.172;4.466;2023-02-15T03:17:26;72.00;;;27.73;;
25938;SDS011;13739;51.172;4.466;2023-02-15T03:19:57;64.88;;;27.98;;
25938;SDS011;13739;51.172;4.466;2023-02-15T03:22:31;69.88;;;30.15;;
25938;SDS011;13739;51.172;4.466;2023-02-15T03:25:11;63.22;;;27.45;;
25938;SDS011;13739;51.172;4.466;2023-02-15T03:27:45;67.55;;;26.83;;
25938;SDS011;13739;51.172;4.466;2023-02-15T03:30:17;70.30;;;29.02;;
25938;SDS011;13739;51.172;4.466;2023-02-15T03:32:45;64.85;;;28.80;;
25938;SDS011;13739;51.172;4.466;2023-02-15T03:35:13;69.22;;;28.75;;
25938;SDS011;13739;51.172;4.466;2023-02-15T03:37:50;71.38;;;28.35;;
25938;SDS011;13739;51.172;4.466;2023-02-15T03:43:17;69.90;;;28.33;;
25938;SDS011;13739;51.172;4.466;2023-02-15T03:45:50;71.65;;;27.63;;
25938;SDS011;13739;51.172;4.466;2023-02-15T03:48:21;68.53;;;27.52;;
25938;SDS011;13739;51.172;4.466;2023-02-15T03:50:50;68.10;;;28.00;;
25938;SDS011;13739;51.172;4.466;2023-02-15T03:53:38;63.00;;;26.67;;
25938;SDS011;13739;51.172;4.466;2023-02-15T03:56:05;64.15;;;27.30;;
25938;SDS011;13739;51.172;4.466;2023-02-15T03:58:30;63.83;;;27.60;;
25938;SDS011;13739;51.172;4.466;2023-02-15T04:01:23;66.15;;;26.90;;
25938;SDS011;13739;51.172;4.466;2023-02-15T04:04:20;65.95;;;27.38;;
25938;SDS011;13739;51.172;4.466;2023-02-15T04:06:48;66.28;;;27.45;;
25938;SDS011;13739;51.172;4.466;2023-02-15T04:09:14;71.68;;;28.90;;
25938;SDS011;13739;51.172;4.466;2023-02-15T04:11:58;68.70;;;26.83;;
25938;SDS011;13739;51.172;4.466;2023-02-15T04:14:24;69.22;;;27.63;;
25938;SDS011;13739;51.172;4.466;2023-02-15T04:17:08;69.28;;;27.10;;
25938;SDS011;13739;51.172;4.466;2023-02-15T04:19:34;68.50;;;26.40;;
25938;SDS011;13739;51.172;4.466;2023-02-15T04:22:18;65.25;;;27.05;;
25938;SDS011;13739;51.172;4.466;2023-02-15T04:25:02;67.90;;;27.95;;
25938;SDS011;13739;51.172;4.466;2023-02-15T04:27:34;61.60;;;26.90;;
25938;SDS011;13739;51.172;4.466;2023-02-15T04:30:01;68.90;;;27.20;;
25938;SDS011;13739;51.172;4.466;2023-02-15T04:32:26;61.50;;;27.38;;
25938;SDS011;13739;51.172;4.466;2023-02-15T04:34:52;72.72;;;28.17;;
25938;SDS011;13739;51.172;4.466;2023-02-15T04:37:18;66.70;;;26.63;;
25938;SDS011;13739;51.172;4.466;2023-02-15T04:39:44;70.55;;;28.25;;
25938;SDS011;13739;51.172;4.466;2023-02-15T04:42:09;65.65;;;27.40;;
25938;SDS011;13739;51.172;4.466;2023-02-15T04:44:35;62.97;;;26.48;;
25938;SDS011;13739;51.172;4.466;2023-02-15T04:47:01;65.97;;;26.88;;
25938;SDS011;13739;51.172;4.466;2023-02-15T04:49:26;74.80;;;27.77;;
25938;SDS011;13739;51.172;4.466;2023-02-15T04:51:52;66.22;;;26.95;;
25938;SDS011;13739;51.172;4.466;2023-02-15T04:54:18;64.35;;;26.45;;
25938;SDS011;13739;51.172;4.466;2023-02-15T04:56:43;69.90;;;27.20;;
25938;SDS011;13739;51.172;4.466;2023-02-15T04:59:10;59.22;;;25.52;;
25938;SDS011;13739;51.172;4.466;2023-02-15T05:01:36;61.25;;;25.55;;
25938;SDS011;13739;51.172;4.466;2023-02-15T05:04:02;64.68;;;27.00;;
25938;SDS011;13739;51.172;4.466;2023-02-15T05:06:28;67.80;;;26.17;;
25938;SDS011;13739;51.172;4.466;2023-02-15T05:08:53;60.88;;;25.65;;
25938;SDS011;13739;51.172;4.466;2023-02-15T05:11:19;57.65;;;25.58;;
25938;SDS011;13739;51.172;4.466;2023-02-15T05:13:45;65.72;;;26.42;;
25938;SDS011;13739;51.172;4.466;2023-02-15T05:16:11;67.57;;;26.67;;
25938;SDS011;13739;51.172;4.466;2023-02-15T05:18:36;61.92;;;26.20;;
25938;SDS011;13739;51.172;4.466;2023-02-15T05:21:02;70.85;;;26.17;;
25938;SDS011;13739;51.172;4.466;2023-02-15T05:23:28;59.47;;;26.30;;
25938;SDS011;13739;51.172;4.466;2023-02-15T05:25:54;62.20;;;25.65;;
25938;SDS011;13739;51.172;4.466;2023-02-15T05:28:38;58.95;;;27.02;;
25938;SDS011;13739;51.172;4.466;2023-02-15T05:33:32;62.75;;;25.70;;
25938;SDS011;13739;51.172;4.466;2023-02-15T05:35:59;61.30;;;25.42;;
25938;SDS011;13739;51.172;4.466;2023-02-15T05:38:25;62.35;;;25.98;;
25938;SDS011;13739;51.172;4.466;2023-02-15T05:40:51;68.57;;;25.95;;
25938;SDS011;13739;51.172;4.466;2023-02-15T05:43:17;54.88;;;24.50;;
25938;SDS011;13739;51.172;4.466;2023-02-15T05:45:46;65.35;;;26.33;;
25938;SDS011;13739;51.172;4.466;2023-02-15T05:48:17;66.18;;;26.83;;
25938;SDS011;13739;51.172;4.466;2023-02-15T05:50:43;58.67;;;25.00;;
25938;SDS011;13739;51.172;4.466;2023-02-15T05:53:09;68.32;;;27.38;;
25938;SDS011;13739;51.172;4.466;2023-02-15T05:55:39;63.13;;;26.02;;
25938;SDS011;13739;51.172;4.466;2023-02-15T05:58:05;65.53;;;26.88;;
25938;SDS011;13739;51.172;4.466;2023-02-15T06:00:32;66.03;;;27.13;;
25938;SDS011;13739;51.172;4.466;2023-02-15T06:02:58;64.65;;;25.60;;
25938;SDS011;13739;51.172;4.466;2023-02-15T06:05:24;66.03;;;26.33;;
25938;SDS011;13739;51.172;4.466;2023-02-15T06:07:50;61.13;;;25.95;;
25938;SDS011;13739;51.172;4.466;2023-02-15T06:10:16;63.22;;;27.35;;
25938;SDS011;13739;51.172;4.466;2023-02-15T06:12:43;66.20;;;26.50;;
25938;SDS011;13739;51.172;4.466;2023-02-15T06:15:09;64.00;;;25.42;;
25938;SDS011;13739;51.172;4.466;2023-02-15T06:17:35;67.25;;;26.73;;
25938;SDS011;13739;51.172;4.466;2023-02-15T06:20:01;67.82;;;27.58;;
25938;SDS011;13739;51.172;4.466;2023-02-15T06:22:26;61.17;;;25.38;;
25938;SDS011;13739;51.172;4.466;2023-02-15T06:24:52;74.93;;;27.17;;
25938;SDS011;13739;51.172;4.466;2023-02-15T06:27:18;72.95;;;26.10;;
25938;SDS011;13739;51.172;4.466;2023-02-15T06:29:43;65.30;;;25.63;;
25938;SDS011;13739;51.172;4.466;2023-02-15T06:32:09;61.55;;;25.77;;
25938;SDS011;13739;51.172;4.466;2023-02-15T06:34:35;59.28;;;26.45;;
25938;SDS011;13739;51.172;4.466;2023-02-15T06:37:00;65.55;;;26.17;;
25938;SDS011;13739;51.172;4.466;2023-02-15T06:39:26;67.50;;;26.17;;
25938;SDS011;13739;51.172;4.466;2023-02-15T06:41:52;57.40;;;25.63;;
25938;SDS011;13739;51.172;4.466;2023-02-15T06:44:17;65.70;;;26.52;;
25938;SDS011;13739;51.172;4.466;2023-02-15T06:46:43;67.55;;;28.10;;
25938;SDS011;13739;51.172;4.466;2023-02-15T06:49:09;72.07;;;27.27;;
25938;SDS011;13739;51.172;4.466;2023-02-15T06:51:34;62.45;;;27.95;;
25938;SDS011;13739;51.172;4.466;2023-02-15T06:54:00;69.53;;;26.52;;
25938;SDS011;13739;51.172;4.466;2023-02-15T06:56:26;67.93;;;26.67;;
25938;SDS011;13739;51.172;4.466;2023-02-15T06:58:51;75.53;;;26.77;;
25938;SDS011;13739;51.172;4.466;2023-02-15T07:01:17;67.03;;;25.67;;
25938;SDS011;13739;51.172;4.466;2023-02-15T07:03:43;66.22;;;25.67;;
25938;SDS011;13739;51.172;4.466;2023-02-15T07:06:09;62.60;;;26.73;;
25938;SDS011;13739;51.172;4.466;2023-02-15T07:08:36;59.22;;;24.23;;
25938;SDS011;13739;51.172;4.466;2023-02-15T07:11:02;77.88;;;28.13;;
25938;SDS011;13739;51.172;4.466;2023-02-15T07:13:47;69.65;;;25.63;;
25938;SDS011;13739;51.172;4.466;2023-02-15T07:16:13;69.38;;;26.60;;
25938;SDS011;13739;51.172;4.466;2023-02-15T07:18:39;70.07;;;26.63;;
25938;SDS011;13739;51.172;4.466;2023-02-15T07:21:05;69.40;;;27.10;;
25938;SDS011;13739;51.172;4.466;2023-02-15T07:23:37;66.50;;;25.48;;
25938;SDS011;13739;51.172;4.466;2023-02-15T07:26:05;64.35;;;25.35;;
25938;SDS011;13739;51.172;4.466;2023-02-15T07:28:32;61.78;;;25.65;;
25938;SDS011;13739;51.172;4.466;2023-02-15T07:31:00;65.28;;;26.88;;
25938;SDS011;13739;51.172;4.466;2023-02-15T07:33:27;63.17;;;26.00;;
25938;SDS011;13739;51.172;4.466;2023-02-15T07:35:54;65.95;;;27.17;;
25938;SDS011;13739;51.172;4.466;2023-02-15T07:38:24;73.20;;;27.48;;
25938;SDS011;13739;51.172;4.466;2023-02-15T07:40:57;65.40;;;26.75;;
25938;SDS011;13739;51.172;4.466;2023-02-15T07:43:27;62.42;;;27.05;;
25938;SDS011;13739;51.172;4.466;2023-02-15T07:45:54;71.13;;;27.40;;
25938;SDS011;13739;51.172;4.466;2023-02-15T07:50:59;59.97;;;24.55;;
25938;SDS011;13739;51.172;4.466;2023-02-15T07:53:40;70.35;;;25.42;;
25938;SDS011;13739;51.172;4.466;2023-02-15T07:56:07;62.28;;;25.20;;
25938;SDS011;13739;51.172;4.466;2023-02-15T07:58:35;73.25;;;27.38;;
25938;SDS011;13739;51.172;4.466;2023-02-15T08:01:26;76.20;;;27.92;;
25938;SDS011;13739;51.172;4.466;2023-02-15T08:03:54;70.95;;;26.75;;
25938;SDS011;13739;51.172;4.466;2023-02-15T08:06:21;69.85;;;27.13;;
25938;SDS011;13739;51.172;4.466;2023-02-15T08:08:48;64.50;;;27.55;;
25938;SDS011;13739;51.172;4.466;2023-02-15T08:11:15;67.53;;;27.20;;
25938;SDS011;13739;51.172;4.466;2023-02-15T08:13:54;71.80;;;27.45;;
25938;SDS011;13739;51.172;4.466;2023-02-15T08:16:31;74.20;;;28.23;;
25938;SDS011;13739;51.172;4.466;2023-02-15T08:19:00;76.22;;;28.67;;
25938;SDS011;13739;51.172;4.466;2023-02-15T08:21:30;68.22;;;28.30;;
25938;SDS011;13739;51.172;4.466;2023-02-15T08:23:56;82.40;;;29.67;;
25938;SDS011;13739;51.172;4.466;2023-02-15T08:26:23;77.25;;;29.25;;
25938;SDS011;13739;51.172;4.466;2023-02-15T08:28:50;65.80;;;28.20;;
25938;SDS011;13739;51.172;4.466;2023-02-15T08:31:16;70.50;;;27.98;;
25938;SDS011;13739;51.172;4.466;2023-02-15T08:33:42;70.82;;;27.98;;
25938;SDS011;13739;51.172;4.466;2023-02-15T08:36:11;72.72;;;28.38;;
25938;SDS011;13739;51.172;4.466;2023-02-15T08:38:38;73.55;;;27.33;;
25938;SDS011;13739;51.172;4.466;2023-02-15T08:41:24;70.70;;;27.05;;
25938;SDS011;13739;51.172;4.466;2023-02-15T08:43:54;63.45;;;27.23;;
25938;SDS011;13739;51.172;4.466;2023-02-15T08:46:22;71.05;;;29.25;;
25938;SDS011;13739;51.172;4.466;2023-02-15T08:48:49;70.50;;;27.40;;
25938;SDS011;13739;51.172;4.466;2023-02-15T08:51:23;80.47;;;30.98;;
25938;SDS011;13739;51.172;4.466;2023-02-15T08:53:51;74.95;;;30.30;;
25938;SDS011;13739;51.172;4.466;2023-02-15T08:56:19;70.35;;;27.83;;
25938;SDS011;13739;51.172;4.466;2023-02-15T08:58:49;74.60;;;29.80;;
25938;SDS011;13739;51.172;4.466;2023-02-15T09:01:16;68.07;;;27.83;;
25938;SDS011;13739;51.172;4.466;2023-02-15T09:03:45;80.38;;;29.73;;
25938;SDS011;13739;51.172;4.466;2023-02-15T09:06:12;71.07;;;28.05;;
25938;SDS011;13739;51.172;4.466;2023-02-15T09:08:39;74.93;;;29.42;;
25938;SDS011;13739;51.172;4.466;2023-02-15T09:11:06;72.13;;;29.02;;
25938;SDS011;13739;51.172;4.466;2023-02-15T09:13:37;75.65;;;29.23;;
25938;SDS011;13739;51.172;4.466;2023-02-15T09:16:05;68.75;;;28.40;;
25938;SDS011;13739;51.172;4.466;2023-02-15T09:18:33;75.53;;;29.85;;
25938;SDS011;13739;51.172;4.466;2023-02-15T09:21:05;64.88;;;27.80;;
25938;SDS011;13739;51.172;4.466;2023-02-15T09:23:33;71.55;;;30.30;;
25938;SDS011;13739;51.172;4.466;2023-02-15T09:26:03;69.40;;;27.77;;
25938;SDS011;13739;51.172;4.466;2023-02-15T09:28:30;66.60;;;28.92;;
25938;SDS011;13739;51.172;4.466;2023-02-15T09:31:03;65.50;;;27.73;;
25938;SDS011;13739;51.172;4.466;2023-02-15T09:33:34;64.43;;;28.25;;
25938;SDS011;13739;51.172;4.466;2023-02-15T09:36:00;64.35;;;27.58;;
25938;SDS011;13739;51.172;4.466;2023-02-15T09:38:26;72.85;;;28.20;;
25938;SDS011;13739;51.172;4.466;2023-02-15T09:41:08;68.20;;;27.60;;
25938;SDS011;13739;51.172;4.466;2023-02-15T10:05:32;65.70;;;28.53;;
25938;SDS011;13739;51.172;4.466;2023-02-15T10:10:51;67.07;;;25.50;;
25938;SDS011;13739;51.172;4.466;2023-02-15T10:13:34;56.83;;;24.23;;
25938;SDS011;13739;51.172;4.466;2023-02-15T10:18:39;56.80;;;23.90;;
25938;SDS011;13739;51.172;4.466;2023-02-15T10:21:34;62.05;;;24.02;;
25938;SDS011;13739;51.172;4.466;2023-02-15T10:27:00;55.85;;;23.80;;
25938;SDS011;13739;51.172;4.466;2023-02-15T10:29:36;54.70;;;22.75;;
25938;SDS011;13739;51.172;4.466;2023-02-15T10:42:51;54.22;;;23.65;;
25938;SDS011;13739;51.172;4.466;2023-02-15T10:48:45;67.22;;;24.50;;
25938;SDS011;13739;51.172;4.466;2023-02-15T10:51:49;53.00;;;20.70;;
25938;SDS011;13739;51.172;4.466;2023-02-15T10:54:22;55.83;;;22.20;;
25938;SDS011;13739;51.172;4.466;2023-02-15T11:05:36;59.80;;;23.65;;
25938;SDS011;13739;51.172;4.466;2023-02-15T11:08:10;57.77;;;22.53;;
25938;SDS011;13739;51.172;4.466;2023-02-15T11:10:44;57.50;;;23.75;;
25938;SDS011;13739;51.172;4.466;2023-02-15T11:13:27;58.88;;;23.55;;
25938;SDS011;13739;51.172;4.466;2023-02-15T11:16:11;58.55;;;22.27;;
25938;SDS011;13739;51.172;4.466;2023-02-15T11:18:50;54.47;;;21.63;;
25938;SDS011;13739;51.172;4.466;2023-02-15T11:21:32;54.85;;;23.05;;
25938;SDS011;13739;51.172;4.466;2023-02-15T11:24:13;61.42;;;21.60;;
25938;SDS011;13739;51.172;4.466;2023-02-15T11:32:02;52.83;;;21.40;;
25938;SDS011;13739;51.172;4.466;2023-02-15T11:34:58;54.95;;;21.98;;
25938;SDS011;13739;51.172;4.466;2023-02-15T11:37:34;57.10;;;22.05;;
25938;SDS011;13739;51.172;4.466;2023-02-15T11:40:01;50.60;;;21.00;;
25938;SDS011;13739;51.172;4.466;2023-02-15T11:42:37;50.17;;;20.65;;
25938;SDS011;13739;51.172;4.466;2023-02-15T11:45:21;51.90;;;20.70;;
25938;SDS011;13739;51.172;4.466;2023-02-15T11:47:55;54.60;;;21.30;;
25938;SDS011;13739;51.172;4.466;2023-02-15T11:50:26;49.95;;;20.33;;
25938;SDS011;13739;51.172;4.466;2023-02-15T11:52:56;53.45;;;20.45;;
25938;SDS011;13739;51.172;4.466;2023-02-15T11:55:27;50.70;;;20.48;;
25938;SDS011;13739;51.172;4.466;2023-02-15T11:57:59;60.35;;;21.65;;
25938;SDS011;13739;51.172;4.466;2023-02-15T12:00:42;52.88;;;20.05;;
25938;SDS011;13739;51.172;4.466;2023-02-15T12:03:15;53.38;;;20.52;;
25938;SDS011;13739;51.172;4.466;2023-02-15T12:08:20;51.20;;;20.17;;
25938;SDS011;13739;51.172;4.466;2023-02-15T12:10:56;50.72;;;20.92;;
25938;SDS011;13739;51.172;4.466;2023-02-15T12:13:27;55.13;;;22.73;;
25938;SDS011;13739;51.172;4.466;2023-02-15T12:15:55;56.60;;;21.75;;
25938;SDS011;13739;51.172;4.466;2023-02-15T12:18:42;54.17;;;21.70;;
25938;SDS011;13739;51.172;4.466;2023-02-15T12:21:13;57.63;;;22.80;;
25938;SDS011;13739;51.172;4.466;2023-02-15T12:23:50;61.00;;;23.20;;
25938;SDS011;13739;51.172;4.466;2023-02-15T12:26:24;54.50;;;21.55;;
25938;SDS011;13739;51.172;4.466;2023-02-15T12:28:55;52.15;;;21.85;;
25938;SDS011;13739;51.172;4.466;2023-02-15T12:31:27;58.67;;;21.98;;
25938;SDS011;13739;51.172;4.466;2023-02-15T12:33:59;53.65;;;20.40;;
25938;SDS011;13739;51.172;4.466;2023-02-15T12:36:40;50.15;;;21.67;;
25938;SDS011;13739;51.172;4.466;2023-02-15T12:41:37;55.08;;;19.95;;
25938;SDS011;13739;51.172;4.466;2023-02-15T12:49:32;61.20;;;23.73;;
25938;SDS011;13739;51.172;4.466;2023-02-15T12:52:06;47.70;;;20.42;;
25938;SDS011;13739;51.172;4.466;2023-02-15T12:54:42;57.92;;;22.83;;
25938;SDS011;13739;51.172;4.466;2023-02-15T12:57:13;60.63;;;22.73;;
25938;SDS011;13739;51.172;4.466;2023-02-15T12:59:48;59.15;;;22.30;;
25938;SDS011;13739;51.172;4.466;2023-02-15T13:02:22;52.72;;;20.55;;
25938;SDS011;13739;51.172;4.466;2023-02-15T13:04:51;53.70;;;21.33;;
25938;SDS011;13739;51.172;4.466;2023-02-15T13:07:17;53.90;;;22.98;;
25938;SDS011;13739;51.172;4.466;2023-02-15T13:09:43;54.15;;;21.80;;
25938;SDS011;13739;51.172;4.466;2023-02-15T13:12:26;51.75;;;21.02;;
25938;SDS011;13739;51.172;4.466;2023-02-15T13:14:55;61.10;;;22.13;;
25938;SDS011;13739;51.172;4.466;2023-02-15T13:20:18;50.42;;;21.42;;
25938;SDS011;13739;51.172;4.466;2023-02-15T13:22:50;51.53;;;22.20;;
25938;SDS011;13739;51.172;4.466;2023-02-15T13:25:22;50.97;;;21.02;;
25938;SDS011;13739;51.172;4.466;2023-02-15T13:27:52;48.40;;;20.90;;
25938;SDS011;13739;51.172;4.466;2023-02-15T13:30:25;48.40;;;20.33;;
25938;SDS011;13739;51.172;4.466;2023-02-15T13:32:58;53.38;;;22.23;;
25938;SDS011;13739;51.172;4.466;2023-02-15T13:35:28;49.13;;;20.45;;
25938;SDS011;13739;51.172;4.466;2023-02-15T13:40:46;47.25;;;20.75;;
25938;SDS011;13739;51.172;4.466;2023-02-15T13:48:51;51.53;;;21.60;;
25938;SDS011;13739;51.172;4.466;2023-02-15T13:57:29;46.53;;;20.27;;
25938;SDS011;13739;51.172;4.466;2023-02-15T14:00:14;53.60;;;21.55;;
25938;SDS011;13739;51.172;4.466;2023-02-15T14:03:00;47.17;;;20.75;;
25938;SDS011;13739;51.172;4.466;2023-02-15T14:06:00;54.80;;;22.20;;
25938;SDS011;13739;51.172;4.466;2023-02-15T14:15:05;49.03;;;20.30;;
25938;SDS011;13739;51.172;4.466;2023-02-15T14:20:47;48.67;;;20.77;;
25938;SDS011;13739;51.172;4.466;2023-02-15T14:31:59;54.17;;;20.23;;
25938;SDS011;13739;51.172;4.466;2023-02-15T14:34:51;50.58;;;20.75;;
25938;SDS011;13739;51.172;4.466;2023-02-15T14:37:25;47.42;;;20.25;;
25938;SDS011;13739;51.172;4.466;2023-02-15T14:40:10;51.38;;;20.88;;
25938;SDS011;13739;51.172;4.466;2023-02-15T14:42:58;49.13;;;21.00;;
25938;SDS011;13739;51.172;4.466;2023-02-15T14:45:38;50.20;;;20.42;;
25938;SDS011;13739;51.172;4.466;2023-02-15T14:48:20;48.28;;;21.08;;
25938;SDS011;13739;51.172;4.466;2023-02-15T14:50:58;57.17;;;21.88;;
25938;SDS011;13739;51.172;4.466;2023-02-15T14:53:32;46.35;;;20.65;;
25938;SDS011;13739;51.172;4.466;2023-02-15T14:58:36;53.47;;;21.50;;
25938;SDS011;13739;51.172;4.466;2023-02-15T15:01:09;52.92;;;21.80;;
25938;SDS011;13739;51.172;4.466;2023-02-15T15:03:36;48.88;;;20.70;;
25938;SDS011;13739;51.172;4.466;2023-02-15T15:06:31;52.72;;;21.17;;
25938;SDS011;13739;51.172;4.466;2023-02-15T15:11:45;47.85;;;20.38;;
25938;SDS011;13739;51.172;4.466;2023-02-15T15:14:57;53.05;;;21.33;;
25938;SDS011;13739;51.172;4.466;2023-02-15T15:16:59;48.65;;;21.08;;
25938;SDS011;13739;51.172;4.466;2023-02-15T15:22:22;56.95;;;23.17;;
25938;SDS011;13739;51.172;4.466;2023-02-15T15:24:50;55.50;;;22.25;;
25938;SDS011;13739;51.172;4.466;2023-02-15T15:32:38;54.97;;;22.27;;
25938;SDS011;13739;51.172;4.466;2023-02-15T15:35:20;51.53;;;22.05;;
25938;SDS011;13739;51.172;4.466;2023-02-15T15:49:23;46.58;;;19.90;;
25938;SDS011;13739;51.172;4.466;2023-02-15T15:51:53;44.50;;;20.17;;
25938;SDS011;13739;51.172;4.466;2023-02-15T15:56:56;50.30;;;20.60;;
25938;SDS011;13739;51.172;4.466;2023-02-15T15:59:26;46.50;;;19.70;;
25938;SDS011;13739;51.172;4.466;2023-02-15T16:01:54;46.45;;;19.88;;
25938;SDS011;13739;51.172;4.466;2023-02-15T16:04:27;43.88;;;19.70;;
25938;SDS011;13739;51.172;4.466;2023-02-15T16:06:57;52.92;;;21.33;;
25938;SDS011;13739;51.172;4.466;2023-02-15T16:09:39;46.03;;;21.45;;
25938;SDS011;13739;51.172;4.466;2023-02-15T16:12:04;50.88;;;22.23;;
25938;SDS011;13739;51.172;4.466;2023-02-15T16:14:42;54.22;;;21.05;;
25938;SDS011;13739;51.172;4.466;2023-02-15T16:17:17;50.60;;;20.92;;
25938;SDS011;13739;51.172;4.466;2023-02-15T16:19:51;49.67;;;21.65;;
25938;SDS011;13739;51.172;4.466;2023-02-15T16:22:23;49.45;;;21.30;;
25938;SDS011;13739;51.172;4.466;2023-02-15T16:27:39;53.35;;;21.70;;
25938;SDS011;13739;51.172;4.466;2023-02-15T16:33:04;46.63;;;21.50;;
25938;SDS011;13739;51.172;4.466;2023-02-15T16:35:42;55.00;;;22.05;;
25938;SDS011;13739;51.172;4.466;2023-02-15T16:38:17;53.63;;;22.60;;
25938;SDS011;13739;51.172;4.466;2023-02-15T16:40:52;60.43;;;23.80;;
25938;SDS011;13739;51.172;4.466;2023-02-15T16:43:24;59.47;;;22.45;;
25938;SDS011;13739;51.172;4.466;2023-02-15T16:46:01;56.47;;;23.08;;
25938;SDS011;13739;51.172;4.466;2023-02-15T16:48:30;58.78;;;23.50;;
25938;SDS011;13739;51.172;4.466;2023-02-15T16:50:58;59.17;;;23.20;;
25938;SDS011;13739;51.172;4.466;2023-02-15T16:53:27;53.42;;;22.42;;
25938;SDS011;13739;51.172;4.466;2023-02-15T16:55:54;56.00;;;23.50;;
25938;SDS011;13739;51.172;4.466;2023-02-15T16:58:41;56.50;;;24.10;;
25938;SDS011;13739;51.172;4.466;2023-02-15T17:01:14;52.35;;;22.05;;
25938;SDS011;13739;51.172;4.466;2023-02-15T17:03:40;56.83;;;22.98;;
25938;SDS011;13739;51.172;4.466;2023-02-15T17:06:26;53.25;;;22.30;;
25938;SDS011;13739;51.172;4.466;2023-02-15T17:09:02;52.17;;;22.42;;
25938;SDS011;13739;51.172;4.466;2023-02-15T17:11:40;53.63;;;21.90;;
25938;SDS011;13739;51.172;4.466;2023-02-15T17:16:36;52.13;;;22.35;;
25938;SDS011;13739;51.172;4.466;2023-02-15T17:19:15;55.53;;;22.80;;
25938;SDS011;13739;51.172;4.466;2023-02-15T17:21:56;53.08;;;22.45;;
25938;SDS011;13739;51.172;4.466;2023-02-15T17:26:57;57.22;;;22.13;;
25938;SDS011;13739;51.172;4.466;2023-02-15T17:32:37;53.42;;;23.00;;
25938;SDS011;13739;51.172;4.466;2023-02-15T17:34:59;53.08;;;22.65;;
25938;SDS011;13739;51.172;4.466;2023-02-15T17:40:07;65.10;;;23.40;;
25938;SDS011;13739;51.172;4.466;2023-02-15T17:42:51;55.45;;;22.02;;
25938;SDS011;13739;51.172;4.466;2023-02-15T17:45:18;55.30;;;22.85;;